createdAt,value
2022-09-03T10:37:31.231Z,1003.71
2022-09-03T10:38:31.233Z,1003.69
2022-09-03T10:39:31.211Z,1003.73
2022-09-03T10:40:31.173Z,1003.73
2022-09-03T10:41:31.159Z,1003.68
2022-09-03T10:42:31.148Z,1003.71
2022-09-03T10:43:31.150Z,1003.68
2022-09-03T10:44:31.125Z,1003.64
2022-09-03T10:45:31.099Z,1003.63
2022-09-03T10:46:31.104Z,1003.62
2022-09-03T10:47:31.073Z,1003.67
2022-09-03T10:48:31.079Z,1003.63
2022-09-03T10:49:31.055Z,1003.61
2022-09-03T10:50:31.028Z,1003.60
2022-09-03T10:51:31.013Z,1003.57
2022-09-03T10:52:31.002Z,1003.58
2022-09-03T10:53:30.998Z,1003.55
2022-09-03T10:54:30.983Z,1003.56
2022-09-03T10:55:30.956Z,1003.51
2022-09-03T10:56:30.952Z,1003.50
2022-09-03T10:57:30.940Z,1003.58
2022-09-03T10:58:30.938Z,1003.53
2022-09-03T10:59:30.900Z,1003.59
2022-09-03T11:00:30.896Z,1003.60
2022-09-03T11:01:30.957Z,1003.63
2022-09-03T11:02:30.920Z,1003.60
2022-09-03T11:03:30.858Z,1003.60
2022-09-03T11:04:30.841Z,1003.59
2022-09-03T11:05:30.813Z,1003.61
2022-09-03T11:06:30.814Z,1003.63
2022-09-03T11:07:30.800Z,1003.54
2022-09-03T11:08:30.801Z,1003.58
2022-09-03T11:09:30.763Z,1003.53
2022-09-03T11:10:31.359Z,1003.54
2022-09-03T11:11:30.740Z,1003.60
2022-09-03T11:12:30.736Z,1003.54
2022-09-03T11:13:30.731Z,1003.56
2022-09-03T11:14:30.709Z,1003.55
2022-09-03T11:15:30.756Z,1003.48
2022-09-03T11:16:30.680Z,1003.52
2022-09-03T11:17:32.135Z,1003.50
2022-09-03T11:18:30.669Z,1003.47
2022-09-03T11:19:30.646Z,1003.51
2022-09-03T11:20:30.633Z,1003.44
2022-09-03T11:21:30.609Z,1003.46
2022-09-03T11:22:30.609Z,1003.49
2022-09-03T11:23:30.597Z,1003.43
2022-09-03T11:24:30.584Z,1003.36
2022-09-03T11:25:30.562Z,1003.38
2022-09-03T11:26:30.553Z,1003.45
2022-09-03T11:27:30.546Z,1003.40
2022-09-03T11:28:30.536Z,1003.39
2022-09-03T11:29:30.512Z,1003.42
2022-09-03T11:30:30.511Z,1003.39
2022-09-03T11:31:30.488Z,1003.36
2022-09-03T11:32:30.485Z,1003.35
2022-09-03T11:33:30.478Z,1003.36
2022-09-03T11:34:32.036Z,1003.31
2022-09-03T11:35:30.449Z,1003.28
2022-09-03T11:36:30.426Z,1003.30
2022-09-03T11:37:30.423Z,1003.27
2022-09-03T11:38:30.412Z,1003.34
2022-09-03T11:39:30.458Z,1003.31
2022-09-03T11:40:30.388Z,1003.34
2022-09-03T11:41:30.373Z,1003.33
2022-09-03T11:42:30.364Z,1003.28
2022-09-03T11:43:30.351Z,1003.29
2022-09-03T11:44:30.334Z,1003.22
2022-09-03T11:45:30.331Z,1003.24
2022-09-03T11:46:30.385Z,1003.24
2022-09-03T11:47:30.295Z,1003.27
2022-09-03T11:48:30.283Z,1003.30
2022-09-03T11:49:30.257Z,1003.29
2022-09-03T11:50:30.324Z,1003.30
2022-09-03T11:51:30.256Z,1003.32
2022-09-03T11:52:30.220Z,1003.30
2022-09-03T11:53:30.222Z,1003.33
2022-09-03T11:54:30.194Z,1003.34
2022-09-03T11:55:31.808Z,1003.40
2022-09-03T11:56:30.164Z,1003.35
2022-09-03T11:57:30.161Z,1003.36
2022-09-03T11:58:30.160Z,1003.31
2022-09-03T11:59:30.126Z,1003.33
2022-09-03T12:00:30.116Z,1003.31
2022-09-03T12:01:30.100Z,1003.29
2022-09-03T12:02:30.130Z,1003.24
2022-09-03T12:03:30.087Z,1003.28
2022-09-03T12:04:30.141Z,1003.28
2022-09-03T12:05:30.064Z,1003.27
2022-09-03T12:06:30.042Z,1003.29
2022-09-03T12:07:30.052Z,1003.29
2022-09-03T12:08:30.028Z,1003.20
2022-09-03T12:09:30.004Z,1003.24
2022-09-03T12:10:30.003Z,1003.31
2022-09-03T12:11:29.979Z,1003.27
2022-09-03T12:12:29.979Z,1003.26
2022-09-03T12:13:29.957Z,1003.32
2022-09-03T12:14:29.952Z,1003.32
2022-09-03T12:15:29.932Z,1003.29
2022-09-03T12:16:29.972Z,1003.28
2022-09-03T12:17:29.918Z,1003.31
2022-09-03T12:18:29.906Z,1003.30
2022-09-03T12:19:29.884Z,1003.32
2022-09-03T12:20:29.870Z,1003.25
2022-09-03T12:21:29.860Z,1003.28
2022-09-03T12:22:29.859Z,1003.31
2022-09-03T12:23:29.846Z,1003.28
2022-09-03T12:24:30.643Z,1003.26
2022-09-03T12:25:29.812Z,1003.23
2022-09-03T12:26:29.805Z,1003.24
2022-09-03T12:27:29.815Z,1003.23
2022-09-03T12:28:29.777Z,1003.21
2022-09-03T12:29:31.107Z,1003.19
2022-09-03T12:30:29.796Z,1003.19
2022-09-03T12:31:29.746Z,1003.20
2022-09-03T12:32:29.750Z,1003.21
2022-09-03T12:33:29.717Z,1003.18
2022-09-03T12:34:29.721Z,1003.09
2022-09-03T12:36:29.695Z,1003.16
2022-09-03T12:38:29.673Z,1003.14
2022-09-03T12:40:29.703Z,1003.10
2022-09-03T12:41:29.699Z,1003.10
2022-09-03T12:42:29.651Z,1003.14
2022-09-03T12:43:37.650Z,1003.10
2022-09-03T12:44:29.599Z,1003.09
2022-09-03T12:46:09.941Z,1003.11
2022-09-03T12:46:33.976Z,1003.07
2022-09-03T12:47:33.843Z,1003.13
2022-09-03T12:48:29.563Z,1003.14
2022-09-03T12:49:30.613Z,1003.07
2022-09-03T12:50:29.532Z,1003.08
2022-09-03T12:52:29.505Z,1003.01
2022-09-03T12:53:29.510Z,1003.00
2022-09-03T12:54:29.495Z,1003.01
2022-09-03T12:55:29.506Z,1003.01
2022-09-03T12:56:29.475Z,1002.98
2022-09-03T12:57:29.462Z,1002.99
2022-09-03T12:58:29.478Z,1003.01
2022-09-03T12:59:29.442Z,1002.95
2022-09-03T13:00:29.423Z,1002.98
2022-09-03T13:01:29.518Z,1002.98
2022-09-03T13:02:29.426Z,1002.93
2022-09-03T13:03:29.414Z,1002.97
2022-09-03T13:04:29.381Z,1002.96
2022-09-03T13:05:29.367Z,1002.98
2022-09-03T13:06:29.370Z,1002.96
2022-09-03T13:07:29.347Z,1002.91
2022-09-03T13:08:29.359Z,1002.95
2022-09-03T13:09:29.336Z,1002.94
2022-09-03T13:10:29.327Z,1002.97
2022-09-03T13:11:29.307Z,1002.86
2022-09-03T13:12:29.294Z,1002.84
2022-09-03T13:13:29.293Z,1002.84
2022-09-03T13:14:29.273Z,1002.88
2022-09-03T13:15:29.262Z,1002.86
2022-09-03T13:16:29.333Z,1002.85
2022-09-03T13:17:29.249Z,1002.87
2022-09-03T13:18:29.241Z,1002.78
2022-09-03T13:24:20.630Z,1002.76
2022-09-03T13:25:20.605Z,1002.75
2022-09-03T13:26:20.590Z,1002.85
2022-09-03T13:27:20.576Z,1002.88
2022-09-03T13:28:20.587Z,1002.85
2022-09-03T13:29:20.561Z,1002.82
2022-09-03T13:30:20.547Z,1002.70
2022-09-03T13:31:20.600Z,1002.71
2022-09-03T13:33:48.987Z,1002.69
2022-09-03T13:35:06.833Z,1002.67
2022-09-03T13:36:06.820Z,1002.70
2022-09-03T13:37:06.810Z,1002.74
2022-09-03T13:38:06.809Z,1002.81
2022-09-03T13:39:06.802Z,1002.81
2022-09-03T13:40:06.784Z,1002.81
2022-09-03T13:41:06.775Z,1002.75
2022-09-03T13:42:06.756Z,1002.66
2022-09-03T13:43:06.752Z,1002.68
2022-09-03T13:44:06.750Z,1002.81
2022-09-03T13:45:06.737Z,1002.74
2022-09-03T13:46:06.739Z,1002.77
2022-09-03T13:47:06.713Z,1002.77
2022-09-03T13:48:06.697Z,1002.77
2022-09-03T13:49:06.699Z,1002.79
2022-09-03T13:50:06.680Z,1002.82
2022-09-03T13:51:06.667Z,1002.82
2022-09-03T13:52:06.668Z,1002.80
2022-09-03T13:53:06.649Z,1002.75
2022-09-03T13:54:06.663Z,1002.81
2022-09-03T13:55:06.635Z,1002.85
2022-09-03T13:56:06.621Z,1002.77
2022-09-03T13:57:06.612Z,1002.63
2022-09-03T13:58:38.372Z,1002.76
2022-09-03T13:59:38.347Z,1002.56
2022-09-03T14:00:38.337Z,1002.68
2022-09-03T14:01:38.367Z,1002.70
2022-09-03T14:02:38.384Z,1002.74
2022-09-03T14:03:38.303Z,1002.75
2022-09-03T14:04:38.318Z,1002.69
2022-09-03T14:05:38.295Z,1002.77
2022-09-03T14:06:38.286Z,1002.79
2022-09-03T14:07:38.271Z,1002.79
2022-09-03T14:08:38.790Z,1002.69
2022-09-03T14:13:46.920Z,1002.85
2022-09-03T14:14:46.922Z,1002.95
2022-09-03T14:15:46.903Z,1002.95
2022-09-03T14:16:47.023Z,1002.75
2022-09-03T14:17:46.873Z,1002.79
2022-09-03T14:18:46.866Z,1002.99
2022-09-03T14:19:46.871Z,1002.92
2022-09-03T14:20:46.850Z,1002.94
2022-09-03T14:21:46.845Z,1002.93
2022-09-03T14:22:46.836Z,1002.77
2022-09-03T14:23:46.827Z,1002.70
2022-09-03T14:24:46.841Z,1002.66
2022-09-03T14:25:48.062Z,1002.72
2022-09-03T14:26:46.813Z,1002.71
2022-09-03T14:27:46.799Z,1002.68
2022-09-03T14:28:46.788Z,1002.67
2022-09-03T14:29:46.806Z,1002.65
2022-09-03T14:30:46.775Z,1002.69
2022-09-03T14:31:46.804Z,1002.56
2022-09-03T14:35:00.372Z,1002.59
2022-09-03T14:36:00.360Z,1002.56
2022-09-03T14:37:00.355Z,1002.57
2022-09-03T14:38:00.341Z,1002.65
2022-09-03T14:39:00.337Z,1002.79
2022-09-03T14:40:02.292Z,1002.66
2022-09-03T14:41:00.323Z,1002.75
2022-09-03T14:42:00.302Z,1002.62
2022-09-03T14:43:00.304Z,1002.68
2022-09-03T14:44:00.294Z,1002.71
2022-09-03T14:45:00.297Z,1002.72
2022-09-03T14:46:05.563Z,1002.67
2022-09-03T14:47:00.261Z,1002.72
2022-09-03T14:48:00.251Z,1002.71
2022-09-03T14:49:00.249Z,1002.73
2022-09-03T14:50:00.234Z,1002.69
2022-09-03T14:51:00.238Z,1002.82
2022-09-03T14:52:00.218Z,1002.67
2022-09-03T14:53:00.211Z,1002.69
2022-09-03T14:54:00.212Z,1002.75
2022-09-03T14:55:00.202Z,1002.78
2022-09-03T14:56:47.080Z,1002.65
2022-09-03T14:57:47.069Z,1002.84
2022-09-03T14:58:47.049Z,1002.84
2022-09-03T14:59:47.039Z,1002.77
2022-09-03T15:00:47.093Z,1002.71
2022-09-03T15:01:47.024Z,1002.63
2022-09-03T15:02:47.024Z,1002.67
2022-09-03T15:04:07.852Z,1002.62
2022-09-03T15:05:11.625Z,1002.61
2022-09-03T15:06:07.834Z,1002.59
2022-09-03T15:07:07.821Z,1002.58
2022-09-03T15:08:07.805Z,1002.60
2022-09-03T15:09:07.810Z,1002.67
2022-09-03T15:10:07.800Z,1002.74
2022-09-03T15:11:07.800Z,1002.81
2022-09-03T15:12:07.783Z,1002.81
2022-09-03T15:13:07.765Z,1002.80
